Tiempo atmosférico en la estación meteorológica de Zafra, Badajoz (433 m.)



Fecha
DESCASC
Temp. máxima en grados centígrados (hora)
DESCASC
Temp. mínima en grados centígrados (hora)
DESCASC
Temp. media en grados centígrados
DESCASC
Racha de viento máxima en m/sg (hora)
DESCASC
Velocidad máxima media en intervalos de 10 minutos(hora)
DESCASC
Precipitaciones diarias en mm
DESCASC
Precipitaciones de 00:00 a 06:00 en mm
DESCASC
Precipitaciones de 06:00 a 12:00 en mm
DESCASC
Precipitaciones de 12:00 a 18:00 en mm
DESCASC
Precipitaciones de 18:00 a 24:00 en mm
DESCASC
23-06-2019 32.3 (17:30) 14.3 (07:20) 23.3 8.06 (22:20) 4.44 (20:40) 0 0 0 0 0
22-06-2019 33.3 (18:30) 14.2 (07:00) 23.7 8.33 (13:40) 3.61 (14:50) 0 0 0 0 0
21-06-2019 28.7 (17:40) 10 (06:40) 19.4 9.17 (16:50) 5 (16:50) 0 0 0 0 0
20-06-2019 27.5 (17:10) 13.7 (00:00) 20.6 10.56 (17:50) 5.28 (18:00) 0 0 0 0 0
19-06-2019 26.7 (19:20) 14.2 (00:00) 20.5 6.94 (16:00) 4.44 (15:40) 0 0 0 0 0
18-06-2019 26.4 (16:10) 12.6 (00:00) 19.5 11.94 (16:30) 5.28 (14:10) 0 0 0 0 0
17-06-2019 30.7 (16:50) 11.4 (00:00) 21.1 10.56 (14:20) 5 (16:20) 0 0 0 0 0
16-06-2019 31.5 (17:50) 9.9 (00:00) 20.7 8.61 (15:50) 4.72 (16:30) 0 0 0 0 0
15-06-2019 26 (18:40) 7.5 (00:00) 16.8 6.67 (14:10) 3.89 (16:50) 0 0 0 0 0
14-06-2019 21.7 (16:50) 7.9 (00:00) 14.8 11.67 (18:00) 5.83 (14:30) 0 0 0 0 0
13-06-2019 26.8 (17:30) 8.3 (00:00) 17.5 11.67 (18:20) 5.28 (20:10) 0 0 0 0 0
12-06-2019 28.7 (17:30) 7.7 (00:00) 18.2 8.33 (23:59) 5.28 (23:59) 0 0 0 0 0
11-06-2019 25.6 (18:50) 9.9 (00:00) 17.8 16.11 (13:20) 7.5 (14:30) 0 0 0 0 0
10-06-2019 27.3 (18:00) 8.6 (00:00) 17.9 10 (15:20) 5.83 (14:00) 0 0 0 0 0
09-06-2019 26.5 (17:30) 10.1 (00:00) 18.3 11.11 (16:20) 5.83 (19:40) 0 0 0 0 0
08-06-2019 29.2 (17:40) 7.7 (00:00) 18.5 8.06 (23:10) 5.28 (23:20) 0 0 0 0 0
07-06-2019 22.5 (19:10) 7.8 (00:00) 15.2 10.83 (01:20) 6.11 (01:20) 0 0 0 0 0
06-06-2019 23.3 (16:20) 6.4 (00:00) 14.8 11.11 (19:00) 5.56 (19:30) 0 0 0 0 0
05-06-2019 22.3 (18:20) 10.7 (00:00) 16.5 12.22 (10:20) 8.06 (02:10) 0 0 0 0 0
04-06-2019 26.9 (15:10) 15.1 (00:00) 21 12.5 (19:40) 8.61 (19:40) 0 0 0 0 0
03-06-2019 33.9 (17:10) 14.8 (00:00) 24.4 10.28 (19:20) 6.11 (21:40) 0 0 0 0 0
02-06-2019 36 (17:10) 17.1 (00:00) 26.6 10.83 (01:40) 6.67 (21:50) 0 0 0 0 0
01-06-2019 35.3 (18:50) 15.1 (00:00) 25.2 8.33 (15:50) 4.72 (15:50) 0 0 0 0 0
31-05-2019 34.7 (17:40) 12.9 (00:00) 23.8 10 (16:30) 4.72 (15:40) 0 0 0 0 0
30-05-2019 33.7 (17:00) 14.8 (00:00) 24.3 18.33 (16:40) 4.44 (09:20) 0 0 0 0 0
29-05-2019 31.2 (18:50) 13.6 (00:00) 22.4 10.83 (11:00) 5.56 (11:00) 0 0 0 0 0
28-05-2019 32.8 (18:20) 12.6 (00:00) 22.7 10.56 (18:00) 5.83 (19:30) 0 0 0 0 0

Gráficas

Temp. máximas Temp. mínimas Temp. medias Precipitaciones Rachas de viento máximas Velocidades máximas media en intervalos de 10 minutos

Datos horarios

Fecha y hora oficial Temperatura (ºC) Velocidad del viento (km/h) Dirección del viento Racha (km/h) Dirección de racha Precipitación (mm) Presión (hPa) Tendencia (hPa) Humedad (%)
2019-06-26 23:00:00 24.8 4 Nordeste 18 Sur 0 -- -- 46
2019-06-26 22:00:00 26.4 10 Sur 23 Sur 0 -- -- 44
2019-06-26 21:00:00 28.3 10 Sur 30 Sur 0 -- -- 41
2019-06-26 20:00:00 29.2 14 Sur 33 Sur 0 -- -- 40
2019-06-26 19:00:00 30 17 Sur 35 Sur 0 -- -- 38
2019-06-26 18:00:00 30.3 17 Sur 35 Sur 0 -- -- 37
2019-06-26 17:00:00 30.5 17 Sur 38 Sudeste 0 -- -- 34
2019-06-26 16:00:00 29.9 15 Sudoeste 30 Sudoeste 0 -- -- 36
2019-06-26 15:00:00 29 15 Sur 31 Sur 0 -- -- 36
2019-06-26 14:00:00 28.3 19 Sur 36 Sur 0 -- -- 38
2019-06-26 13:00:00 27.1 15 Sur 35 Sudeste 0 -- -- 41
2019-06-26 12:00:00 25.6 13 Sur 30 Sur 0 -- -- 43
2019-06-26 11:00:00 23.9 13 Sur 21 Sur 0 -- -- 52
2019-06-26 10:00:00 22.1 12 Sur 21 Sur 0 -- -- 61
2019-06-26 09:00:00 20.5 6 Sudeste 12 Sudeste 0 -- -- 67
2019-06-26 08:00:00 17.2 6 Sudeste 12 Sudeste 0 -- -- 75
2019-06-26 07:00:00 16.4 7 Sudeste 10 Sudeste 0 -- -- 78
2019-06-26 06:00:00 16.9 6 Sudeste 9 Sudeste 0 -- -- 75
2019-06-26 05:00:00 18.5 5 Este 10 Oeste 0 -- -- 71
2019-06-26 04:00:00 19.5 6 Sudoeste 22 Sudoeste 0 -- -- 68
2019-06-26 03:00:00 20.2 14 Sudoeste 21 Sudoeste 0 -- -- 64
2019-06-26 02:00:00 21.1 10 Sudoeste 22 Sur 0 -- -- 60
2019-06-26 01:00:00 22.5 10 Sudoeste 21 Oeste 0 -- -- 53
2019-06-26 00:00:00 24.5 11 Oeste 30 Sur 0 -- -- 47
2019-06-25 23:00:00 26.8 10 Sur 30 Sur 0 -- -- 40
2019-06-25 22:00:00 28.6 15 Sur 30 Sudeste 0 -- -- 34
2019-06-25 21:00:00 30.8 11 Sur 30 Sur 0 -- -- 30
2019-06-25 20:00:00 32 13 Sudoeste 28 Sur 0 -- -- 29
2019-06-25 19:00:00 32.3 13 Sur 32 Sur 0 -- -- 29
2019-06-25 18:00:00 31.9 11 Sudoeste 38 Sur 0 -- -- 31
2019-06-25 17:00:00 32.1 8 Sur 30 Sudeste 0 -- -- 32
2019-06-25 16:00:00 31.3 13 Sudeste 27 Sur 0 -- -- 35
2019-06-25 15:00:00 30.6 9 Sudoeste 33 Sur 0 -- -- 36
2019-06-25 14:00:00 29.5 10 Sudoeste 31 Sur 0 -- -- 37
2019-06-25 13:00:00 28.8 11 Sur 24 Sur 0 -- -- 40
2019-06-25 12:00:00 27 9 Sudeste 22 Sudeste 0 -- -- 44
2019-06-25 11:00:00 25.1 13 Sudeste 23 Sudeste 0 -- -- 48
2019-06-25 10:00:00 23.4 12 Sudeste 20 Sudeste 0 -- -- 47
2019-06-25 09:00:00 19.7 7 Sur 10 Sur 0 -- -- 51
2019-06-25 08:00:00 16 8 Sur 10 Sudeste 0 -- -- 63
2019-06-25 07:00:00 14.7 4 Sudeste 7 Sudeste 0 -- -- 68
2019-06-25 06:00:00 15.8 4 Sur 6 Sudeste 0 -- -- 66
2019-06-25 05:00:00 15.2 4 Sudeste 6 Sudeste 0 -- -- 68
2019-06-25 04:00:00 16.3 0 Calma -- -- 0 -- -- 62
2019-06-25 03:00:00 17.1 3 Noroeste 8 Noroeste 0 -- -- 61
2019-06-25 02:00:00 17.2 7 Noroeste 10 Noroeste 0 -- -- 60
2019-06-25 01:00:00 18 8 Noroeste 12 Noroeste 0 -- -- 59
2019-06-25 00:00:00 19.4 10 Noroeste 27 Norte 0 -- -- 54
2019-06-24 23:00:00 21 15 Noroeste 27 Noroeste 0 -- -- 52
2019-06-24 22:00:00 22.2 18 Noroeste 34 Noroeste 0 -- -- 52
2019-06-24 21:00:00 25.1 19 Noroeste 31 Noroeste 0 -- -- 45
2019-06-24 20:00:00 27.1 17 Norte 29 Norte 0 -- -- 48
2019-06-24 19:00:00 26.8 20 Noroeste 38 Norte 0 -- -- 53
2019-06-24 18:00:00 27.9 22 Norte 44 Norte 0 -- -- 51
2019-06-24 17:00:00 29.9 15 Oeste 29 Oeste 0 -- -- 41
2019-06-24 16:00:00 29.6 10 Sudoeste 26 Noroeste 0 -- -- 39
2019-06-24 15:00:00 29.3 7 Noroeste 23 Noroeste 0 -- -- 40
2019-06-24 14:00:00 28.7 6 Este 26 Sudeste 0 -- -- 40
2019-06-24 13:00:00 27.8 7 Sur 24 Sur 0 -- -- 41
2019-06-24 12:00:00 25.9 10 Sudoeste 21 Sudoeste 0 -- -- 50
2019-06-24 11:00:00 23.7 10 Sur 19 Sudeste 0 -- -- 60
2019-06-24 10:00:00 22.3 8 Sudeste 13 Sur 0 -- -- 70
2019-06-24 09:00:00 20.2 6 Sudeste 8 Sudeste 0 -- -- 76
2019-06-24 08:00:00 18.4 5 Sur 6 Sur 0 -- -- 80
2019-06-24 07:00:00 19.1 0 Calma 5 Sudeste 0 -- -- 77
2019-06-24 06:00:00 19.9 4 Sur 6 Sudeste 0 -- -- 75
2019-06-24 05:00:00 20.5 0 Calma 8 Oeste 0 -- -- 72
2019-06-24 04:00:00 20.9 5 Oeste 9 Oeste 0 -- -- 72
2019-06-24 03:00:00 20.7 0 Calma 6 Noroeste 0 -- -- 67
2019-06-24 02:00:00 20.7 0 Calma 4 Noroeste 0 -- -- 67
2019-06-24 01:00:00 21.7 0 Calma 6 Noroeste 0 -- -- 61
2019-06-24 00:00:00 22.3 5 Noroeste 8 Noroeste 0 -- -- 60
2019-06-23 23:00:00 23.8 8 Noroeste 29 Noroeste 0 -- -- 55
2019-06-23 22:00:00 25.6 12 Noroeste 21 Noroeste 0 -- -- 46
2019-06-23 21:00:00 27.9 12 Noroeste 24 Noroeste 0 -- -- 24
2019-06-23 20:00:00 29.6 13 Oeste 20 Oeste 0 -- -- 22
2019-06-23 19:00:00 30.3 10 Noroeste 24 Noroeste 0 -- -- 23
2019-06-23 18:00:00 31.9 11 Oeste 24 Sudoeste 0 -- -- 23
2019-06-23 17:00:00 32.1 14 Oeste 26 Oeste 0 -- -- 24
2019-06-23 16:00:00 31.6 15 Sur 25 Sur 0 -- -- 24
2019-06-23 15:00:00 30.4 8 Oeste 27 Oeste 0 -- -- 27
2019-06-23 14:00:00 29.4 9 Sudeste 23 Sudeste 0 -- -- 29
2019-06-23 13:00:00 28.6 7 Sur 24 Sur 0 -- -- 27
2019-06-23 12:00:00 27.3 6 Sudoeste 20 Sudoeste 0 -- -- 29
2019-06-23 11:00:00 25.9 9 Sur 20 Sudeste 0 -- -- 28
2019-06-23 10:00:00 23.3 9 Sudeste 14 Sudeste 0 -- -- 30
2019-06-23 09:00:00 19.7 9 Sudeste 12 Sudeste 0 -- -- 37
2019-06-23 08:00:00 15.6 4 Sudeste 15 Sur 0 -- -- 42
2019-06-23 07:00:00 14.4 8 Sur 15 Sur 0 -- -- 46
2019-06-23 06:00:00 15.2 8 Sur 10 Sur 0 -- -- 44
2019-06-23 05:00:00 15 4 Sudeste 5 Sudeste 0 -- -- 44
2019-06-23 04:00:00 17.2 3 Este 8 Sudeste 0 -- -- 38
2019-06-23 03:00:00 18.3 5 Sudeste 9 Sudeste 0 -- -- 36
2019-06-23 02:00:00 18.5 3 Este 6 Nordeste 0 -- -- 38
2019-06-23 01:00:00 20.6 3 Este 8 Este 0 -- -- 32
2019-06-23 00:00:00 22.2 0 Calma 13 Sudoeste 0 -- -- 27
2019-06-22 23:00:00 24.3 2 Oeste 12 Oeste 0 -- -- 26
2019-06-22 22:00:00 28 5 Oeste 21 Oeste 0 -- -- 23
2019-06-22 21:00:00 30.6 11 Noroeste 23 Sur 0 -- -- 22
2019-06-22 20:00:00 32.2 10 Sudoeste 26 Oeste 0 -- -- 22
2019-06-22 19:00:00 32.6 9 Sur 27 Oeste 0 -- -- 20
2019-06-22 18:00:00 33.1 12 Sur 26 Oeste 0 -- -- 21
2019-06-22 17:00:00 32.9 10 Sur 26 Sur 0 -- -- 22
2019-06-22 16:00:00 32.5 9 Sudoeste 28 Sur 0 -- -- 23
2019-06-22 15:00:00 31.7 9 Sur 23 Sur 0 -- -- 25
2019-06-22 14:00:00 31.1 8 Norte 30 Oeste 0 -- -- 25
2019-06-22 13:00:00 30.1 13 Sudeste 26 Sudeste 0 -- -- 27
2019-06-22 12:00:00 29 9 Sur 21 Sudeste 0 -- -- 29
2019-06-22 11:00:00 26.7 5 Sudeste 13 Sudeste 0 -- -- 32
2019-06-22 10:00:00 23.6 6 Este 12 Sudeste 0 -- -- 36
2019-06-22 09:00:00 19.2 8 Sudeste 13 Sudeste 0 -- -- 50
2019-06-22 08:00:00 14.7 9 Sur 12 Sur 0 -- -- 62
2019-06-22 07:00:00 14.2 9 Sur 12 Sur 0 -- -- 64
2019-06-22 06:00:00 14.7 9 Sur 11 Sur 0 -- -- 63
2019-06-22 05:00:00 14.9 8 Sur 12 Sudeste 0 -- -- 63
2019-06-22 04:00:00 15 6 Sudeste 11 Sudeste 0 -- -- 63
2019-06-22 03:00:00 15.6 6 Sudeste 8 Sudeste 0 -- -- 61
2019-06-22 02:00:00 17.9 5 Noroeste 13 Noroeste 0 -- -- 54
2019-06-22 01:00:00 18.9 9 Noroeste 12 Norte 0 -- -- 50
2019-06-22 00:00:00 20.2 6 Noroeste 10 Noroeste 0 -- -- 44
2019-06-21 23:00:00 21.7 0 Calma 6 Norte 0 -- -- 39
2019-06-21 22:00:00 25.2 5 Oeste 11 Oeste 0 -- -- 33
2019-06-21 21:00:00 28 4 Norte 18 Noroeste 0 -- -- 27
2019-06-21 20:00:00 27.6 7 Norte 27 Noroeste 0 -- -- 28
2019-06-21 19:00:00 28.2 11 Norte 24 Noroeste 0 -- -- 27
2019-06-21 18:00:00 28.3 13 Norte 26 Oeste 0 -- -- 27
2019-06-21 17:00:00 28.1 10 Norte 33 Noroeste 0 -- -- 29
2019-06-21 16:00:00 27.5 10 Norte 31 Noroeste 0 -- -- 31
2019-06-21 15:00:00 26.2 13 Norte 24 Noroeste 0 -- -- 35
2019-06-21 14:00:00 25.2 14 Noroeste 25 Noroeste 0 -- -- 42
2019-06-21 13:00:00 23.2 14 Noroeste 21 Noroeste 0 -- -- 48
2019-06-21 12:00:00 21.3 12 Noroeste 21 Noroeste 0 -- -- 52
2019-06-21 11:00:00 18.5 7 Noroeste 16 Noroeste 0 -- -- 60
2019-06-21 10:00:00 17 8 Norte 15 Noroeste 0 -- -- 67
2019-06-21 09:00:00 15.5 3 Norte 8 Sudeste 0 -- -- 73
2019-06-21 08:00:00 11.4 2 Sur 8 Sudeste 0 -- -- 88
2019-06-21 07:00:00 10.2 0 Calma 6 Norte 0 -- -- 91
2019-06-21 06:00:00 10.7 0 Calma 3 Oeste 0 -- -- 87
2019-06-21 05:00:00 11.8 2 Norte 12 Oeste 0 -- -- 83
2019-06-21 04:00:00 13 0 Calma 13 Noroeste 0 -- -- 78
2019-06-21 03:00:00 14.5 10 Noroeste 22 Noroeste 0 -- -- 73
2019-06-21 02:00:00 16.1 16 Noroeste 25 Noroeste 0 -- -- 67
2019-06-21 01:00:00 17.7 14 Noroeste 24 Oeste 0 -- -- 60
2019-06-21 00:00:00 18.7 12 Noroeste 26 Noroeste 0 -- -- 56
2019-06-20 23:00:00 20.5 15 Noroeste 24 Noroeste 0 -- -- 50
2019-06-20 22:00:00 21.8 14 Noroeste 27 Noroeste 0 -- -- 47
2019-06-20 21:00:00 23.1 17 Noroeste 33 Noroeste 0 -- -- 44
2019-06-20 20:00:00 25.2 17 Noroeste 37 Noroeste 0 -- -- 36
2019-06-20 19:00:00 26.3 15 Noroeste 30 Noroeste 0 -- -- 34
2019-06-20 18:00:00 27 19 Noroeste 38 Noroeste 0 -- -- 34
2019-06-20 17:00:00 27.4 13 Oeste 30 Oeste 0 -- -- 34
2019-06-20 16:00:00 26.5 10 Oeste 29 Oeste 0 -- -- 37
2019-06-20 15:00:00 25.5 10 Oeste 25 Sudoeste 0 -- -- 43
2019-06-20 14:00:00 24.9 7 Sudoeste 24 Sur 0 -- -- 45
2019-06-20 13:00:00 24.6 10 Sur 23 Sur 0 -- -- 46
2019-06-20 12:00:00 22.9 4 Sudoeste 22 Nordeste 0 -- -- 52
2019-06-20 11:00:00 22.2 5 Noroeste 11 Norte 0 -- -- 56
2019-06-20 10:00:00 19.5 3 Noroeste 7 Noroeste 0 -- -- 66
2019-06-20 09:00:00 17.8 3 Sudeste 6 Sudeste 0 -- -- 74
2019-06-20 08:00:00 15.2 5 Sudeste 8 Sudeste 0 -- -- 85
2019-06-20 07:00:00 14.2 3 Sudeste 6 Sudeste 0 -- -- 85
2019-06-20 06:00:00 14.3 0 Calma 5 Sudeste 0 -- -- 85
2019-06-20 05:00:00 13.8 2 Sur 5 Sur 0 -- -- 83
2019-06-20 04:00:00 14.3 3 Sudeste 5 Sudeste 0 -- -- 79
2019-06-20 03:00:00 14.9 0 Calma 4 Sudeste 0 -- -- 75
2019-06-20 02:00:00 16.7 0 Calma 9 Noroeste 0 -- -- 71
2019-06-20 01:00:00 17.8 0 Calma 9 Sudoeste 0 -- -- 68
2019-06-20 00:00:00 18.1 0 Calma 4 Sudeste 0 -- -- 65
2019-06-19 23:00:00 20.1 0 Calma 12 Noroeste 0 -- -- 60
2019-06-19 22:00:00 21.9 9 Noroeste 21 Noroeste 0 -- -- 56
2019-06-19 21:00:00 24.1 10 Noroeste 21 Noroeste 0 -- -- 47
2019-06-19 20:00:00 25.4 11 Noroeste 23 Oeste 0 -- -- 40
2019-06-19 19:00:00 26.1 12 Oeste 24 Noroeste 0 -- -- 39
2019-06-19 18:00:00 26.4 13 Oeste 23 Sudoeste 0 -- -- 40
2019-06-19 17:00:00 26.5 7 Noroeste 24 Oeste 0 -- -- 40
2019-06-19 16:00:00 26.2 11 Oeste 25 Sudoeste 0 -- -- 40
2019-06-19 15:00:00 24.8 10 Oeste 24 Oeste 0 -- -- 43
2019-06-19 14:00:00 24.7 14 Oeste 23 Oeste 0 -- -- 43
2019-06-19 13:00:00 22.5 13 Oeste 22 Oeste 0 -- -- 49
2019-06-19 12:00:00 22 9 Sudeste 21 Sur 0 -- -- 52
2019-06-19 11:00:00 20.8 9 Sur 21 Sur 0 -- -- 56
2019-06-19 10:00:00 18.4 9 Sur 15 Sur 0 -- -- 74
2019-06-19 09:00:00 17.2 12 Sudoeste 17 Sur 0 -- -- 79
2019-06-19 08:00:00 16.9 6 Sur 15 Sur 0 -- -- 80
2019-06-19 07:00:00 15.2 2 Sudeste 3 Este 0 -- -- 84
2019-06-19 06:00:00 14.6 0 Calma 12 Sudeste 0 -- -- 84
2019-06-19 05:00:00 14.4 5 Sur 8 Sudoeste 0 -- -- 83
2019-06-19 04:00:00 16.3 2 Sudoeste 13 Noroeste 0 -- -- 78
2019-06-19 03:00:00 17.2 5 Oeste 12 Oeste 0 -- -- 73
2019-06-19 02:00:00 17.4 2 Sur 8 Noroeste 0 -- -- 74
2019-06-19 01:00:00 19.1 5 Noroeste 16 Sudeste 0 -- -- 69
2019-06-19 00:00:00 20.3 6 Este 26 Sur 0 -- -- 63
2019-06-18 23:00:00 21.4 7 Sudeste 18 Sur 0 -- -- 57
2019-06-18 22:00:00 22.3 6 Oeste 25 Oeste 0 -- -- 53
2019-06-18 21:00:00 24.3 10 Oeste 30 Oeste 0 -- -- 47
2019-06-18 20:00:00 25.2 16 Oeste 35 Oeste 0 -- -- 45
2019-06-18 19:00:00 25.2 14 Oeste 32 Sur 0 -- -- 45
2019-06-18 18:00:00 25.7 12 Sudoeste 37 Oeste 0 -- -- 46
2019-06-18 17:00:00 25.3 15 Oeste 43 Oeste 0 -- -- 45
2019-06-18 16:00:00 26.1 13 Sudoeste 36 Oeste 0 -- -- 42
2019-06-18 15:00:00 25.6 17 Oeste 40 Oeste 0 -- -- 46
2019-06-18 14:00:00 25.1 18 Oeste 40 Oeste 0 -- -- 45
2019-06-18 13:00:00 23.8 14 Sudoeste 32 Oeste 0 -- -- 45
2019-06-18 12:00:00 22.6 7 Sudoeste 26 Sur 0 -- -- 43
2019-06-18 11:00:00 20.2 12 Sur 29 Sur 0 -- -- 42
2019-06-18 10:00:00 18.7 18 Sur 28 Sudoeste 0 -- -- 38
2019-06-18 09:00:00 16.5 10 Sur 21 Sur 0 -- -- 54
2019-06-18 08:00:00 13.7 5 Sudeste 12 Sudeste 0 -- -- 68
2019-06-18 07:00:00 12.8 4 Norte 18 Sudoeste 0 -- -- 70
2019-06-18 06:00:00 15.8 8 Sudoeste 23 Sudoeste 0 -- -- 48
2019-06-18 05:00:00 17.2 14 Sudoeste 24 Sudoeste 0 -- -- 49
2019-06-18 04:00:00 18.2 14 Sudoeste 23 Sudoeste 0 -- -- 44
2019-06-18 03:00:00 19.8 13 Sudoeste 22 Sudoeste 0 -- -- 36
2019-06-18 02:00:00 21.1 6 Sudoeste 22 Sur 0 -- -- 28
2019-06-18 01:00:00 22 13 Sur 20 Sur 0 -- -- 23
2019-06-18 00:00:00 22.3 7 Sur 13 Sur 0 -- -- 25
2019-06-17 23:00:00 24 11 Sur 21 Sur 0 -- -- 24
2019-06-17 22:00:00 25.3 15 Sudoeste 33 Sudoeste 0 -- -- 22
2019-06-17 21:00:00 27.2 13 Sur 31 Sur 0 -- -- 22
2019-06-17 20:00:00 29.1 16 Sur 35 Sur 0 -- -- 19
2019-06-17 19:00:00 29.8 13 Sur 36 Sur 0 -- -- 21
2019-06-17 18:00:00 30.6 13 Sur 36 Sur 0 -- -- 17
2019-06-17 17:00:00 30.5 14 Sur 34 Sur 0 -- -- 17
2019-06-17 16:00:00 29.7 18 Sudeste 33 Sudeste 0 -- -- 18
2019-06-17 15:00:00 29.3 17 Sur 38 Sudeste 0 -- -- 16
2019-06-17 14:00:00 28.5 13 Sur 32 Sudoeste 0 -- -- 18
2019-06-17 13:00:00 26.6 15 Sur 29 Sur 0 -- -- 18
2019-06-17 12:00:00 25.2 15 Sur 27 Sudeste 0 -- -- 20
2019-06-17 11:00:00 23.1 14 Sur 26 Sur 0 -- -- 33
2019-06-17 10:00:00 21.3 15 Sur 29 Sur 0 -- -- 35
2019-06-17 09:00:00 17.4 8 Sudeste 16 Sudeste 0 -- -- 45
2019-06-17 08:00:00 13.5 13 Sur 18 Sur 0 -- -- 51
2019-06-17 07:00:00 11.8 8 Sur 11 Sur 0 -- -- 63
2019-06-17 06:00:00 12.6 8 Sur 12 Sudeste 0 -- -- 66
2019-06-17 05:00:00 14.3 7 Sur 19 Sudeste 0 -- -- 61
2019-06-17 04:00:00 15.8 8 Sudeste 14 Sur 0 -- -- 55
2019-06-17 03:00:00 17.5 6 Sudeste 17 Sur 0 -- -- 48
2019-06-17 02:00:00 19.9 9 Sudoeste 37 Sur 0 -- -- 40
2019-06-17 01:00:00 21 13 Sur 27 Sur 0 -- -- 34
2019-06-17 00:00:00 21 8 Sur 20 Sur 0 -- -- 32
2019-06-16 23:00:00 23.9 12 Sur 25 Oeste 0 -- -- 28
2019-06-16 22:00:00 25.9 7 Oeste 19 Noroeste 0 -- -- 27
2019-06-16 21:00:00 28.5 11 Oeste 23 Oeste 0 -- -- 24
2019-06-16 20:00:00 30.2 6 Oeste 23 Oeste 0 -- -- 21
2019-06-16 19:00:00 30.6 9 Oeste 27 Oeste 0 -- -- 19
2019-06-16 18:00:00 31.2 9 Oeste 26 Sur 0 -- -- 19
2019-06-16 17:00:00 30.8 11 Sudoeste 28 Sudeste 0 -- -- 19
2019-06-16 16:00:00 30.5 10 Sur 31 Sur 0 -- -- 17
2019-06-16 15:00:00 29.4 11 Sur 27 Sur 0 -- -- 19
2019-06-16 14:00:00 28.7 12 Sur 28 Sur 0 -- -- 23
2019-06-16 13:00:00 26.5 5 Oeste 19 Este 0 -- -- 26
2019-06-16 12:00:00 24.5 6 Norte 13 Nordeste 0 -- -- 34
2019-06-16 11:00:00 21.3 7 Noroeste 12 Noroeste 0 -- -- 44
2019-06-16 10:00:00 19 6 Noroeste 9 Noroeste 0 -- -- 50
2019-06-16 09:00:00 16.2 0 Calma 6 Sur 0 -- -- 58
2019-06-16 08:00:00 11.8 5 Sudeste 8 Sudeste 0 -- -- 67
2019-06-16 07:00:00 9.9 5 Sudeste 8 Sudeste 0 -- -- 72
2019-06-16 06:00:00 10.4 5 Sudeste 8 Sudeste 0 -- -- 70
2019-06-16 05:00:00 11 3 Sudeste 5 Noroeste 0 -- -- 62
2019-06-16 04:00:00 12.5 4 Noroeste 8 Noroeste 0 -- -- 55
2019-06-16 03:00:00 14.1 6 Noroeste 8 Noroeste 0 -- -- 47
2019-06-16 02:00:00 12.9 0 Calma 6 Sudeste 0 -- -- 48
2019-06-16 01:00:00 14.7 6 Sur 9 Sudeste 0 -- -- 43
2019-06-16 00:00:00 16.1 4 Sudeste 5 Sudeste 0 -- -- 41
2019-06-15 23:00:00 18.2 3 Noroeste 8 Oeste 0 -- -- 35
2019-06-15 22:00:00 20.9 5 Noroeste 18 Noroeste 0 -- -- 31
2019-06-15 21:00:00 24.3 11 Noroeste 24 Noroeste 0 -- -- 27
2019-06-15 20:00:00 25.2 10 Noroeste 19 Norte 0 -- -- 26
2019-06-15 19:00:00 25.5 12 Noroeste 23 Noroeste 0 -- -- 25
2019-06-15 18:00:00 25.7 4 Sudoeste 22 Noroeste 0 -- -- 27
2019-06-15 17:00:00 25.2 9 Oeste 23 Noroeste 0 -- -- 27
2019-06-15 16:00:00 24 7 Oeste 19 Noroeste 0 -- -- 30
2019-06-15 15:00:00 23 13 Noroeste 24 Noroeste 0 -- -- 33
2019-06-15 14:00:00 21.7 6 Oeste 23 Norte 0 -- -- 35
2019-06-15 13:00:00 20.3 10 Norte 21 Noroeste 0 -- -- 39
2019-06-15 12:00:00 18.8 10 Noroeste 19 Noroeste 0 -- -- 43
2019-06-15 11:00:00 17.1 7 Noroeste 18 Noroeste 0 -- -- 51
2019-06-15 10:00:00 15.5 7 Noroeste 12 Noroeste 0 -- -- 58
2019-06-15 09:00:00 14.1 0 Calma 9 Sur 0 -- -- 66
2019-06-15 08:00:00 9.6 4 Sur 6 Sudeste 0 -- -- 80
2019-06-15 07:00:00 7.6 3 Sudeste 6 Sur 0 -- -- 82
2019-06-15 06:00:00 8.5 3 Sudeste 6 Sudeste 0 -- -- 79
2019-06-15 05:00:00 8.7 3 Sudeste -- -- 0 -- -- 77
2019-06-15 04:00:00 9.8 2 Sudeste 3 Sudeste 0 -- -- 71
2019-06-15 03:00:00 12 0 Calma 18 Oeste 0 -- -- 64
2019-06-15 02:00:00 13.1 10 Oeste 17 Oeste 0 -- -- 62
2019-06-15 01:00:00 12 0 Calma 9 Norte 0 -- -- 60
2019-06-15 00:00:00 13.6 4 Norte 10 Noroeste 0 -- -- 56
2019-06-14 23:00:00 15.3 2 Noroeste 17 Noroeste 0 -- -- 51
2019-06-14 22:00:00 17.7 14 Noroeste 29 Noroeste 0 -- -- 45
2019-06-14 21:00:00 18.8 13 Noroeste 29 Noroeste 0 -- -- 41
2019-06-14 20:00:00 20.8 18 Noroeste 28 Noroeste 0 -- -- 36
2019-06-14 19:00:00 20.7 18 Noroeste 32 Noroeste 0 -- -- 35
2019-06-14 18:00:00 21.2 18 Noroeste 42 Noroeste 0 -- -- 34
2019-06-14 17:00:00 20.9 17 Noroeste 36 Noroeste 0 -- -- 35
2019-06-14 16:00:00 19.8 15 Noroeste 36 Noroeste 0 -- -- 37
2019-06-14 15:00:00 19.3 12 Noroeste 37 Noroeste 0 -- -- 38
2019-06-14 14:00:00 18.4 15 Noroeste 32 Noroeste 0 -- -- 41
2019-06-14 13:00:00 19.7 9 Oeste 32 Oeste 0 -- -- 35
2019-06-14 12:00:00 17.9 8 Oeste 27 Oeste 0 -- -- 41
2019-06-14 11:00:00 16.4 14 Oeste 28 Sudoeste 0 -- -- 45
2019-06-14 10:00:00 14.4 10 Noroeste 21 Noroeste 0 -- -- 56
2019-06-14 09:00:00 12.8 10 Noroeste 18 Noroeste 0 -- -- 58
2019-06-14 08:00:00 11 2 Este 11 Sudeste 0 -- -- 65
2019-06-14 07:00:00 7.9 3 Este 7 Sudeste 0 -- -- 76
2019-06-14 06:00:00 8.4 3 Sudeste 9 Este 0 -- -- 73
2019-06-14 05:00:00 9.4 5 Sur 7 Sur 0 -- -- 71
2019-06-14 04:00:00 10.6 2 Noroeste 9 Norte 0 -- -- 68
2019-06-14 03:00:00 11.6 4 Noroeste 15 Noroeste 0 -- -- 63
2019-06-14 02:00:00 12.4 2 Sudoeste 9 Noroeste 0 -- -- 57
2019-06-14 01:00:00 14.5 8 Noroeste 24 Noroeste 0 -- -- 52
2019-06-14 00:00:00 17 18 Noroeste 27 Norte 0 -- -- 45
2019-06-13 23:00:00 19.2 5 Oeste 17 Noroeste 0 -- -- 31
2019-06-13 22:00:00 21 6 Oeste 22 Oeste 0 -- -- 28
2019-06-13 21:00:00 23 9 Oeste 30 Noroeste 0 -- -- 25
2019-06-13 20:00:00 23.8 16 Noroeste 30 Oeste 0 -- -- 24
2019-06-13 19:00:00 25.1 12 Oeste 42 Oeste 0 -- -- 23
2019-06-13 18:00:00 25.6 14 Oeste 35 Noroeste 0 -- -- 25
2019-06-13 17:00:00 26.4 13 Oeste 32 Oeste 0 -- -- 25
2019-06-13 16:00:00 26 14 Oeste 30 Oeste 0 -- -- 26
2019-06-13 15:00:00 25.7 14 Oeste 32 Oeste 0 -- -- 26
2019-06-13 14:00:00 24.6 14 Oeste 30 Oeste 0 -- -- 25
2019-06-13 13:00:00 23.4 10 Sur 22 Sur 0 -- -- 24
2019-06-13 12:00:00 21.8 8 Oeste 14 Oeste 0 -- -- 20
2019-06-13 11:00:00 19 7 Oeste 15 Noroeste 0 -- -- 29
2019-06-13 10:00:00 15.8 7 Sur 24 Sudeste 0 -- -- 45
2019-06-13 09:00:00 12.5 12 Sudeste 21 Sur 0 -- -- 58
2019-06-13 08:00:00 10.6 16 Sur 19 Sur 0 -- -- 60
2019-06-13 07:00:00 10.6 12 Sudeste 19 Sudoeste 0 -- -- 57
2019-06-13 06:00:00 8.3 4 Sur 14 Sudoeste 0 -- -- 64
2019-06-13 05:00:00 9.2 0 Calma 5 Sur 0 -- -- 58
2019-06-13 04:00:00 10.1 5 Sudeste 8 Sur 0 -- -- 59
2019-06-13 03:00:00 11 2 Sudeste 3 Sudeste 0 -- -- 55
2019-06-13 02:00:00 13.1 0 Calma 14 Noroeste 0 -- -- 48
2019-06-13 01:00:00 15.5 9 Noroeste 27 Noroeste 0 -- -- 46
2019-06-13 00:00:00 17.9 19 Noroeste 30 Norte 0 -- -- 39
2019-06-12 23:00:00 20 13 Noroeste 23 Noroeste 0 -- -- 22
2019-06-12 22:00:00 23 10 Noroeste 21 Noroeste 0 -- -- 17
2019-06-12 21:00:00 26.3 10 Noroeste 23 Noroeste 0 -- -- 15
2019-06-12 20:00:00 27.6 12 Oeste 27 Noroeste 0 -- -- 15
2019-06-12 19:00:00 28 13 Noroeste 28 Oeste 0 -- -- 15
2019-06-12 18:00:00 28.6 8 Norte 24 Oeste 0 -- -- 15
2019-06-12 17:00:00 28.3 12 Oeste 27 Noroeste 0 -- -- 15
2019-06-12 16:00:00 28.1 9 Norte 22 Norte 0 -- -- 17
2019-06-12 15:00:00 27.1 10 Noroeste 24 Norte 0 -- -- 18
2019-06-12 14:00:00 26.2 14 Norte 23 Norte 0 -- -- 18
2019-06-12 13:00:00 24.6 8 Noroeste 17 Noroeste 0 -- -- 19
2019-06-12 12:00:00 23 6 Norte 14 Noroeste 0 -- -- 22
2019-06-12 11:00:00 20.9 5 Noroeste 10 Noroeste 0 -- -- 24
2019-06-12 10:00:00 17.9 8 Noroeste 15 Noroeste 0 -- -- 29
2019-06-12 09:00:00 15.2 7 Noroeste 9 Noroeste 0 -- -- 34
2019-06-12 08:00:00 9.7 0 Calma 8 Sudeste 0 -- -- 47
2019-06-12 07:00:00 7.8 3 Sudeste 6 Noroeste 0 -- -- 49
2019-06-12 06:00:00 10.1 5 Noroeste 8 Noroeste 0 -- -- 38
2019-06-12 05:00:00 10.2 5 Noroeste 6 Noroeste 0 -- -- 39
2019-06-12 04:00:00 9.9 3 Norte 6 Norte 0 -- -- 38
2019-06-12 03:00:00 12.4 4 Noroeste 9 Noroeste 0 -- -- 33
2019-06-12 02:00:00 13.3 7 Noroeste 9 Noroeste 0 -- -- 31
2019-06-12 01:00:00 14.2 4 Norte 9 Noroeste 0 -- -- 30
2019-06-12 00:00:00 15.9 7 Norte 10 Noroeste 0 -- -- 27
2019-06-11 23:00:00 17.8 7 Noroeste 15 Norte 0 -- -- 25
2019-06-11 22:00:00 20.7 13 Noroeste 28 Noroeste 0 -- -- 22
2019-06-11 21:00:00 23.3 17 Norte 33 Norte 0 -- -- 20
2019-06-11 20:00:00 24.6 17 Norte 35 Norte 0 -- -- 20
2019-06-11 19:00:00 25.2 18 Norte 44 Norte 0 -- -- 22
2019-06-11 18:00:00 25.3 24 Noroeste 47 Noroeste 0 -- -- 19
2019-06-11 17:00:00 25.2 23 Noroeste 40 Noroeste 0 -- -- 23
2019-06-11 16:00:00 24.5 23 Norte 41 Norte 0 -- -- 29
2019-06-11 15:00:00 24 23 Noroeste 45 Noroeste 0 -- -- 30
2019-06-11 14:00:00 22.8 24 Norte 58 Noroeste 0 -- -- 36
2019-06-11 13:00:00 21.9 20 Noroeste 36 Noroeste 0 -- -- 39
2019-06-11 12:00:00 19.9 22 Noroeste 35 Norte 0 -- -- 45
2019-06-11 11:00:00 17.9 19 Noroeste 33 Noroeste 0 -- -- 49
2019-06-11 10:00:00 16.2 19 Noroeste 31 Noroeste 0 -- -- 52
2019-06-11 09:00:00 14.6 18 Noroeste 26 Norte 0 -- -- 56
2019-06-11 08:00:00 11.4 0 Calma 5 Oeste 0 -- -- 65
2019-06-11 07:00:00 10.4 0 Calma 17 Oeste 0 -- -- 66
2019-06-11 06:00:00 11.9 9 Oeste 16 Oeste 0 -- -- 61
2019-06-11 05:00:00 11.8 4 Noroeste 13 Oeste 0 -- -- 59
2019-06-11 04:00:00 11.4 3 Sudeste 6 Noroeste 0 -- -- 57
2019-06-11 03:00:00 13.5 2 Nordeste 21 Oeste 0 -- -- 50
2019-06-11 02:00:00 14.7 9 Oeste 22 Noroeste 0 -- -- 48
2019-06-11 01:00:00 14.8 4 Noroeste 15 Norte 0 -- -- 44
2019-06-11 00:00:00 17.2 12 Noroeste 27 Noroeste 0 -- -- 38
2019-06-10 23:00:00 19.4 14 Noroeste 25 Noroeste 0 -- -- 33
2019-06-10 22:00:00 21.8 14 Noroeste 27 Noroeste 0 -- -- 31
2019-06-10 21:00:00 24.5 17 Noroeste 29 Noroeste 0 -- -- 27
2019-06-10 20:00:00 26 16 Noroeste 29 Noroeste 0 -- -- 24
2019-06-10 19:00:00 26.6 20 Noroeste 30 Noroeste 0 -- -- 24
2019-06-10 18:00:00 27.3 13 Noroeste 30 Noroeste 0 -- -- 23
2019-06-10 17:00:00 26.5 15 Noroeste 32 Noroeste 0 -- -- 24
2019-06-10 16:00:00 25.9 16 Noroeste 36 Norte 0 -- -- 26
2019-06-10 15:00:00 24.5 16 Noroeste 29 Norte 0 -- -- 30
2019-06-10 14:00:00 23.5 21 Noroeste 31 Noroeste 0 -- -- 33
2019-06-10 13:00:00 22.2 15 Noroeste 28 Noroeste 0 -- -- 36
2019-06-10 12:00:00 21 13 Noroeste 21 Noroeste 0 -- -- 42
2019-06-10 11:00:00 19.1 11 Noroeste 19 Noroeste 0 -- -- 48
2019-06-10 10:00:00 16.8 8 Norte 13 Norte 0 -- -- 55
2019-06-10 09:00:00 15 4 Norte 8 Sudeste 0 -- -- 62
2019-06-10 08:00:00 10.9 6 Sur 9 Sudeste 0 -- -- 79
2019-06-10 07:00:00 8.7 4 Sudeste 6 Sudeste 0 -- -- 84
2019-06-10 06:00:00 9.7 2 Noroeste 5 Noroeste 0 -- -- 81
2019-06-10 05:00:00 10.8 3 Sudeste 5 Sudeste 0 -- -- 77
2019-06-10 04:00:00 12.1 2 Sudeste 14 Noroeste 0 -- -- 72
2019-06-10 03:00:00 13.9 10 Noroeste 20 Norte 0 -- -- 67
2019-06-10 02:00:00 15 11 Norte 22 Norte 0 -- -- 60
2019-06-10 01:00:00 16.5 13 Noroeste 28 Noroeste 0 -- -- 53
2019-06-10 00:00:00 17.7 14 Noroeste 25 Noroeste 0 -- -- 48
2019-06-09 23:00:00 19.1 13 Noroeste 24 Noroeste 0 -- -- 42
2019-06-09 22:00:00 20.7 16 Noroeste 32 Noroeste 0 -- -- 38
2019-06-09 21:00:00 22.5 19 Noroeste 35 Noroeste 0 -- -- 36
2019-06-09 20:00:00 24.8 19 Noroeste 37 Noroeste 0 -- -- 30
2019-06-09 19:00:00 25.7 14 Noroeste 32 Noroeste 0 -- -- 27
2019-06-09 18:00:00 26.1 20 Noroeste 35 Noroeste 0 -- -- 25
2019-06-09 17:00:00 26 17 Noroeste 40 Norte 0 -- -- 25
2019-06-09 16:00:00 26 18 Norte 31 Noroeste 0 -- -- 25
2019-06-09 15:00:00 25.6 13 Noroeste 32 Noroeste 0 -- -- 24
2019-06-09 14:00:00 23.9 10 Oeste 25 Oeste 0 -- -- 27
2019-06-09 13:00:00 22.4 9 Sudoeste 26 Oeste 0 -- -- 26
2019-06-09 12:00:00 20.6 8 Sudoeste 19 Sudoeste 0 -- -- 28
2019-06-09 11:00:00 19.2 9 Oeste 19 Oeste 0 -- -- 28
2019-06-09 10:00:00 17.5 9 Oeste 21 Oeste 0 -- -- 20
2019-06-09 09:00:00 15.6 6 Oeste 13 Oeste 0 -- -- 31
2019-06-09 08:00:00 11.4 3 Noroeste 7 Sudeste 0 -- -- 55
2019-06-09 07:00:00 10.9 0 Calma 8 Sur 0 -- -- 59
2019-06-09 06:00:00 11.5 3 Norte 17 Sudeste 0 -- -- 58
2019-06-09 05:00:00 10.9 8 Sur 10 Sudeste 0 -- -- 61
2019-06-09 04:00:00 11.3 5 Sudeste 7 Sudeste 0 -- -- 63
2019-06-09 03:00:00 12.9 4 Noroeste 8 Noroeste 0 -- -- 59
2019-06-09 02:00:00 14.3 0 Calma 11 Noroeste 0 -- -- 55
2019-06-09 01:00:00 16.9 15 Noroeste 25 Norte 0 -- -- 49
2019-06-09 00:00:00 18.3 14 Norte 29 Noroeste 0 -- -- 45
2019-06-08 23:00:00 19.7 9 Noroeste 14 Noroeste 0 -- -- 30
2019-06-08 22:00:00 23.7 6 Oeste 17 Sudoeste 0 -- -- 20
2019-06-08 21:00:00 25.9 8 Sudoeste 24 Oeste 0 -- -- 21
2019-06-08 20:00:00 27.8 9 Oeste 20 Noroeste 0 -- -- 20
2019-06-08 19:00:00 29.2 5 Oeste 20 Oeste 0 -- -- 18
2019-06-08 18:00:00 29 12 Oeste 25 Oeste 0 -- -- 19
2019-06-08 17:00:00 28.3 5 Nordeste 22 Oeste 0 -- -- 19
2019-06-08 16:00:00 27.6 12 Noroeste 26 Oeste 0 -- -- 19
2019-06-08 15:00:00 26.8 10 Sudoeste 21 Oeste 0 -- -- 20
2019-06-08 14:00:00 25.4 10 Este 18 Sudeste 0 -- -- 24
2019-06-08 13:00:00 23.4 12 Noroeste 21 Norte 0 -- -- 29
2019-06-08 12:00:00 22.2 8 Noroeste 19 Norte 0 -- -- 32
2019-06-08 11:00:00 19.8 8 Noroeste 15 Noroeste 0 -- -- 38
2019-06-08 10:00:00 16.9 9 Noroeste 12 Noroeste 0 -- -- 44
2019-06-08 09:00:00 14.2 6 Noroeste 9 Noroeste 0 -- -- 54
2019-06-08 08:00:00 9.5 0 Calma 4 Noroeste 0 -- -- 69
2019-06-08 07:00:00 8.3 4 Noroeste 8 Noroeste 0 -- -- 70
2019-06-08 06:00:00 9.7 6 Noroeste 10 Noroeste 0 -- -- 68
2019-06-08 05:00:00 10.3 7 Noroeste 9 Noroeste 0 -- -- 65
2019-06-08 04:00:00 10.8 8 Noroeste 10 Noroeste 0 -- -- 62
2019-06-08 03:00:00 11.6 5 Noroeste 10 Noroeste 0 -- -- 57
2019-06-08 02:00:00 11.8 6 Noroeste 8 Noroeste 0 -- -- 55
2019-06-08 01:00:00 11.1 0 Calma 4 Sudeste 0 -- -- 52
2019-06-08 00:00:00 12.8 2 Sudeste 5 Sudeste 0 -- -- 46
2019-06-07 23:00:00 15.4 0 Calma 7 Noroeste 0 -- -- 38
2019-06-07 22:00:00 17.8 5 Noroeste 17 Noroeste 0 -- -- 34
2019-06-07 21:00:00 21 12 Noroeste 26 Noroeste 0 -- -- 27
2019-06-07 20:00:00 22 11 Noroeste 26 Norte 0 -- -- 26
2019-06-07 19:00:00 22.4 11 Norte 24 Noroeste 0 -- -- 27
2019-06-07 18:00:00 21.9 12 Norte 27 Norte 0 -- -- 27
2019-06-07 17:00:00 21.7 16 Noroeste 27 Noroeste 0 -- -- 28
2019-06-07 16:00:00 21 17 Noroeste 29 Norte 0 -- -- 30
2019-06-07 15:00:00 20.3 15 Noroeste 29 Noroeste 0 -- -- 33
2019-06-07 14:00:00 18.9 14 Noroeste 33 Noroeste 0 -- -- 37
2019-06-07 13:00:00 17.7 17 Norte 31 Noroeste 0 -- -- 42
2019-06-07 12:00:00 16.4 18 Noroeste 31 Noroeste 0 -- -- 43
2019-06-07 11:00:00 15.3 17 Noroeste 32 Norte 0 -- -- 51
2019-06-07 10:00:00 13.8 19 Noroeste 28 Noroeste 0 -- -- 64
2019-06-07 09:00:00 12.1 14 Noroeste 22 Noroeste 0 -- -- 77
2019-06-07 08:00:00 8.8 4 Noroeste 7 Noroeste 0 -- -- 89
2019-06-07 07:00:00 8.2 0 Calma 4 Este 0 -- -- 89
2019-06-07 06:00:00 9.8 0 Calma 10 Noroeste 0 -- -- 86
2019-06-07 05:00:00 11.4 9 Noroeste 15 Noroeste 0 -- -- 82
2019-06-07 04:00:00 11.9 7 Noroeste 10 Noroeste 0 -- -- 88
2019-06-07 03:00:00 11.8 9 Norte 31 Noroeste 0 -- -- 91
2019-06-07 02:00:00 12.3 15 Norte 39 Oeste 0 -- -- 90
2019-06-07 01:00:00 16.3 18 Oeste 33 Oeste 0 -- -- 68
2019-06-07 00:00:00 16.5 14 Oeste 31 Oeste 0 -- -- 64
2019-06-06 23:00:00 17.1 8 Este 30 Oeste 0 -- -- 60
2019-06-06 22:00:00 18.3 14 Sudoeste 35 Oeste 0 -- -- 53
2019-06-06 21:00:00 20.5 17 Oeste 39 Oeste 0 -- -- 43
2019-06-06 20:00:00 22.1 15 Oeste 36 Oeste 0 -- -- 38
2019-06-06 19:00:00 22.8 14 Oeste 40 Oeste 0 -- -- 35
2019-06-06 18:00:00 22.7 19 Oeste 38 Oeste 0 -- -- 33
2019-06-06 17:00:00 23.1 18 Oeste 39 Oeste 0 -- -- 29
2019-06-06 16:00:00 22.7 15 Oeste 32 Noroeste 0 -- -- 25
2019-06-06 15:00:00 22.1 11 Oeste 31 Oeste 0 -- -- 28
2019-06-06 14:00:00 20.8 11 Sudoeste 31 Oeste 0 -- -- 29
2019-06-06 13:00:00 19.6 12 Sur 27 Sur 0 -- -- 31
2019-06-06 12:00:00 17.9 7 Noroeste 13 Nordeste 0 -- -- 41
2019-06-06 11:00:00 16.1 6 Norte 15 Oeste 0 -- -- 44
2019-06-06 10:00:00 14.1 4 Nordeste 10 Noroeste 0 -- -- 50
2019-06-06 09:00:00 12.6 0 Calma 6 Sudeste 0 -- -- 58
2019-06-06 08:00:00 7.8 3 Sudeste 6 Sudeste 0 -- -- 73
2019-06-06 07:00:00 6.7 3 Sur 8 Sudeste 0 -- -- 76
2019-06-06 06:00:00 7.2 4 Sudeste 8 Sudeste 0 -- -- 73
2019-06-06 05:00:00 8 0 Calma 5 Noroeste 0 -- -- 69
2019-06-06 04:00:00 9.7 5 Noroeste 7 Noroeste 0 -- -- 63
2019-06-06 03:00:00 11.1 5 Noroeste 17 Noroeste 0 -- -- 59
2019-06-06 02:00:00 12.3 11 Noroeste 22 Noroeste 0 -- -- 54
2019-06-06 01:00:00 13.2 12 Noroeste 20 Noroeste 0 -- -- 49
2019-06-06 00:00:00 14.6 13 Noroeste 21 Noroeste 0 -- -- 45
2019-06-05 23:00:00 14.9 6 Noroeste 14 Noroeste 0 -- -- 42
2019-06-05 22:00:00 16.9 8 Noroeste 19 Noroeste 0 -- -- 38
2019-06-05 21:00:00 19.7 15 Noroeste 26 Noroeste 0 -- -- 33
2019-06-05 20:00:00 21 14 Noroeste 33 Noroeste 0 -- -- 31
2019-06-05 19:00:00 21.5 21 Noroeste 32 Noroeste 0 -- -- 32
2019-06-05 18:00:00 21.9 15 Noroeste 33 Oeste 0 -- -- 29
2019-06-05 17:00:00 20.8 20 Noroeste 37 Noroeste 0 -- -- 29
2019-06-05 16:00:00 20.1 18 Noroeste 36 Noroeste 0 -- -- 34
2019-06-05 15:00:00 19.6 24 Noroeste 36 Noroeste 0 -- -- 37
2019-06-05 14:00:00 19.6 25 Noroeste 42 Noroeste 0 -- -- 36
2019-06-05 13:00:00 18.5 23 Noroeste 37 Noroeste 0 -- -- 41
2019-06-05 12:00:00 18 23 Noroeste 39 Noroeste 0 -- -- 44
2019-06-05 11:00:00 16.1 21 Noroeste 44 Oeste 0 -- -- 49
2019-06-05 10:00:00 15 20 Noroeste 30 Noroeste 0 -- -- 54
2019-06-05 09:00:00 13.4 17 Noroeste 27 Noroeste 0 -- -- 62
2019-06-05 08:00:00 11.3 5 Noroeste 19 Noroeste 0 -- -- 74
2019-06-05 07:00:00 10.9 14 Noroeste 32 Noroeste 0 -- -- 79
2019-06-05 06:00:00 11.3 20 Noroeste 32 Noroeste 0 -- -- 74
2019-06-05 05:00:00 11.7 23 Oeste 34 Noroeste 0 -- -- 72
2019-06-05 04:00:00 12 22 Noroeste 40 Noroeste 0 -- -- 72
2019-06-05 03:00:00 12.5 24 Noroeste 39 Noroeste 0 -- -- 67
2019-06-05 02:00:00 13.4 28 Noroeste 43 Noroeste 0 -- -- 60
2019-06-05 01:00:00 14.5 20 Noroeste 36 Noroeste 0 -- -- 54
2019-06-05 00:00:00 15.7 27 Noroeste 41 Noroeste 0 -- -- 55
2019-06-04 23:00:00 17.7 14 Noroeste 33 Noroeste 0 -- -- 64
2019-06-04 22:00:00 18.4 20 Noroeste 39 Noroeste 0 -- -- 58
2019-06-04 21:00:00 19.3 19 Noroeste 37 Noroeste 0 -- -- 57
2019-06-04 20:00:00 21 27 Noroeste 45 Noroeste 0 -- -- 60
2019-06-04 19:00:00 24.5 21 Noroeste 40 Noroeste 0 -- -- 47
2019-06-04 18:00:00 25 20 Noroeste 38 Noroeste 0 -- -- 42
2019-06-04 17:00:00 25.5 14 Oeste 32 Oeste 0 -- -- 42
2019-06-04 16:00:00 26.8 10 Oeste 35 Oeste 0 -- -- 39
2019-06-04 15:00:00 26.7 10 Oeste 28 Noroeste 0 -- -- 39
2019-06-04 14:00:00 25.3 12 Oeste 26 Oeste 0 -- -- 42
2019-06-04 13:00:00 23.9 12 Norte 23 Noroeste 0 -- -- 45
2019-06-04 12:00:00 21.8 10 Noroeste 23 Noroeste 0 -- -- 51
2019-06-04 11:00:00 19.9 6 Norte 18 Noroeste 0 -- -- 57
2019-06-04 10:00:00 17.6 10 Noroeste 23 Noroeste 0 -- -- 66
2019-06-04 09:00:00 16 14 Noroeste 19 Noroeste 0 -- -- 77
2019-06-04 08:00:00 15.8 12 Noroeste 18 Noroeste 0 -- -- 78
2019-06-04 07:00:00 15.2 6 Norte 20 Sudoeste 0 -- -- 75
2019-06-04 06:00:00 15.1 5 Sudeste 13 Sudeste 0 -- -- 68
2019-06-04 05:00:00 15.6 3 Sudeste 6 Sur 0 -- -- 64
2019-06-04 04:00:00 16.8 2 Sudeste 6 Noroeste 0 -- -- 60
2019-06-04 03:00:00 18.9 7 Noroeste 11 Noroeste 0 -- -- 53
2019-06-04 02:00:00 20.8 4 Oeste 14 Oeste 0 -- -- 49
2019-06-04 01:00:00 22 10 Oeste 18 Oeste 0 -- -- 51
2019-06-04 00:00:00 23.3 5 Oeste 19 Oeste 0 -- -- 39
2019-06-03 23:00:00 24.5 3 Oeste 19 Oeste 0 -- -- 28
2019-06-03 22:00:00 27.3 16 Noroeste 34 Noroeste 0 -- -- 24
2019-06-03 21:00:00 30 15 Noroeste 32 Noroeste 0 -- -- 21
2019-06-03 20:00:00 32.2 14 Oeste 37 Oeste 0 -- -- 17
2019-06-03 19:00:00 33 15 Oeste 29 Noroeste 0 -- -- 17
2019-06-03 18:00:00 33.3 12 Oeste 33 Oeste 0 -- -- 17
2019-06-03 17:00:00 33.7 10 Oeste 27 Oeste 0 -- -- 16
2019-06-03 16:00:00 33.4 12 Noroeste 27 Oeste 0 -- -- 17
2019-06-03 15:00:00 33.1 9 Sudoeste 26 Oeste 0 -- -- 18
2019-06-03 14:00:00 32.9 13 Oeste 25 Oeste 0 -- -- 18
2019-06-03 13:00:00 31.7 6 Este 13 Sur 0 -- -- 20
2019-06-03 12:00:00 29.6 5 Norte 13 Norte 0 -- -- 20
2019-06-03 11:00:00 27.2 8 Noroeste 13 Noroeste 0 -- -- 23
2019-06-03 10:00:00 24.7 3 Nordeste 9 Sudeste 0 -- -- 30
2019-06-03 09:00:00 20.4 4 Sur 9 Sur 0 -- -- 40
2019-06-03 08:00:00 17 7 Sur 10 Sur 0 -- -- 46
2019-06-03 07:00:00 14.8 6 Sur 11 Sudeste 0 -- -- 50
2019-06-03 06:00:00 15.6 6 Sudeste 9 Sudeste 0 -- -- 46
2019-06-03 05:00:00 16.4 5 Sur 8 Sur 0 -- -- 46
2019-06-03 04:00:00 17.1 2 Sudeste 6 Sudeste 0 -- -- 48
2019-06-03 03:00:00 19 2 Sudeste 4 Sur 0 -- -- 43
2019-06-03 02:00:00 21.6 0 Calma 8 Norte 0 -- -- 36
2019-06-03 01:00:00 23 2 Norte 6 Oeste 0 -- -- 31
2019-06-03 00:00:00 25.2 5 Noroeste 18 Noroeste 0 -- -- 28
2019-06-02 23:00:00 26.8 10 Noroeste 27 Noroeste 0 -- -- 26
2019-06-02 22:00:00 29.1 22 Noroeste 37 Noroeste 0 -- -- 23
2019-06-02 21:00:00 32 8 Noroeste 20 Noroeste 0 -- -- 23
2019-06-02 20:00:00 34 9 Norte 20 Norte 0 -- -- 21
2019-06-02 19:00:00 34.9 7 Oeste 23 Noroeste 0 -- -- 20
2019-06-02 18:00:00 35.8 9 Noroeste 22 Sur 0 -- -- 17
2019-06-02 17:00:00 35.6 5 Oeste 20 Nordeste 0 -- -- 17
2019-06-02 16:00:00 35 11 Este 21 Este 0 -- -- 17
2019-06-02 15:00:00 33.9 9 Noroeste 17 Noroeste 0 -- -- 20
2019-06-02 14:00:00 33 8 Oeste 17 Oeste 0 -- -- 21
2019-06-02 13:00:00 31.6 8 Noroeste 17 Sudoeste 0 -- -- 23
2019-06-02 12:00:00 29.5 9 Sur 17 Oeste 0 -- -- 26
2019-06-02 11:00:00 28.1 6 Sudoeste 21 Oeste 0 -- -- 28
2019-06-02 10:00:00 25 10 Sudoeste 24 Sudoeste 0 -- -- 33
2019-06-02 09:00:00 22.7 12 Este 17 Sudeste 0 -- -- 37
2019-06-02 08:00:00 20.5 10 Sudeste 17 Sudeste 0 -- -- 40
2019-06-02 07:00:00 18.2 11 Sudeste 19 Sudeste 0 -- -- 43
2019-06-02 06:00:00 17.7 10 Sudeste 19 Este 0 -- -- 44
2019-06-02 05:00:00 19 15 Sur 19 Sur 0 -- -- 41
2019-06-02 04:00:00 20.6 15 Sudeste 20 Sudeste 0 -- -- 39
2019-06-02 03:00:00 24.4 6 Sur 32 Sudoeste 0 -- -- 32
2019-06-02 02:00:00 26.6 18 Sudoeste 39 Sur 0 -- -- 28
2019-06-02 01:00:00 26.8 10 Oeste 32 Oeste 0 -- -- 28
2019-06-02 00:00:00 28.2 15 Sudoeste 26 Sudoeste 0 -- -- 26
2019-06-01 23:00:00 27 7 Sudeste 13 Sudeste 0 -- -- 25
2019-06-01 22:00:00 28.6 5 Noroeste 15 Nordeste 0 -- -- 21
2019-06-01 21:00:00 32.7 11 Norte 25 Norte 0 -- -- 18
2019-06-01 20:00:00 34.6 10 Este 29 Nordeste 0 -- -- 16
2019-06-01 19:00:00 34.8 9 Este 22 Nordeste 0 -- -- 15
2019-06-01 18:00:00 34.9 9 Norte 21 Este 0 -- -- 16
2019-06-01 17:00:00 34.8 9 Este 21 Este 0 -- -- 16
2019-06-01 16:00:00 34.3 8 Este 30 Este 0 -- -- 17
2019-06-01 15:00:00 33.5 12 Sudeste 27 Este 0 -- -- 19
2019-06-01 14:00:00 32.6 14 Sudeste 26 Este 0 -- -- 19
2019-06-01 13:00:00 31.8 10 Sudeste 19 Sur 0 -- -- 22
2019-06-01 12:00:00 30.5 5 Este 18 Este 0 -- -- 23
2019-06-01 11:00:00 28.1 10 Sudeste 17 Sudeste 0 -- -- 26
2019-06-01 10:00:00 24.8 8 Sudeste 20 Sudeste 0 -- -- 32
2019-06-01 09:00:00 21.1 10 Sudeste 17 Sudeste 0 -- -- 39
2019-06-01 08:00:00 16.8 8 Sudeste 14 Sur 0 -- -- 47
2019-06-01 07:00:00 15.2 10 Sudeste 14 Sudeste 0 -- -- 49
2019-06-01 06:00:00 16.4 8 Sudeste 13 Sudeste 0 -- -- 45
2019-06-01 05:00:00 17.2 5 Sudeste 13 Sudeste 0 -- -- 43
2019-06-01 04:00:00 17.2 5 Sudeste 14 Sudeste 0 -- -- 43
2019-06-01 03:00:00 18.3 9 Sudeste 15 Sudeste 0 -- -- 40
2019-06-01 02:00:00 19.4 11 Sudeste 14 Sudeste 0 -- -- 39
2019-06-01 01:00:00 20.7 8 Sudeste 14 Sudeste 0 -- -- 37
2019-06-01 00:00:00 22.5 8 Sudeste 14 Sudeste 0 -- -- 34
2019-05-31 23:00:00 25.6 9 Sudeste 18 Sudeste 0 -- -- 28
2019-05-31 22:00:00 28.5 3 Noroeste 15 Nordeste 0 -- -- 22
2019-05-31 21:00:00 32.7 7 Nordeste 19 Nordeste 0 -- -- 16
2019-05-31 20:00:00 33.6 10 Nordeste 27 Nordeste 0 -- -- 16
2019-05-31 19:00:00 34.4 7 Este 24 Este 0 -- -- 17
2019-05-31 18:00:00 34.5 9 Este 33 Este 0 -- -- 16
2019-05-31 17:00:00 34.2 11 Este 36 Este 0 -- -- 16
2019-05-31 16:00:00 33.6 14 Este 28 Sudeste 0 -- -- 17
2019-05-31 15:00:00 32.9 7 Sudeste 30 Este 0 -- -- 20
2019-05-31 14:00:00 32 16 Este 33 Sudeste 0 -- -- 22
2019-05-31 13:00:00 30.2 12 Este 28 Nordeste 0 -- -- 25
2019-05-31 12:00:00 28.4 10 Este 24 Este 0 -- -- 27
2019-05-31 11:00:00 26.4 10 Este 20 Este 0 -- -- 31
2019-05-31 10:00:00 23.4 2 Oeste 8 Noroeste 0 -- -- 33
2019-05-31 09:00:00 20.1 3 Sur 7 Sudeste 0 -- -- 39
2019-05-31 08:00:00 14.4 8 Sudeste 13 Sudeste 0 -- -- 54
2019-05-31 07:00:00 12.9 7 Sudeste 10 Sudeste 0 -- -- 58
2019-05-31 06:00:00 14.4 0 Calma 8 Sudeste 0 -- -- 52
2019-05-31 05:00:00 16.4 6 Sudeste 13 Sudeste 0 -- -- 48
2019-05-31 04:00:00 17.4 10 Sudeste 15 Sudeste 0 -- -- 50
2019-05-31 03:00:00 18.6 10 Sur 17 Sudeste 0 -- -- 50
2019-05-31 02:00:00 19.2 9 Sudeste 13 Sur 0 -- -- 47
2019-05-31 01:00:00 20.3 10 Sudeste 14 Sur 0 -- -- 41
2019-05-31 00:00:00 21.6 8 Sur 17 Sudeste 0 -- -- 35
2019-05-30 23:00:00 22.6 3 Sudeste 9 Norte 0 -- -- 30
2019-05-30 22:00:00 27.2 6 Norte 17 Norte 0 -- -- 22
2019-05-30 21:00:00 31.7 8 Nordeste 23 Nordeste 0 -- -- 16
2019-05-30 20:00:00 32.8 10 Nordeste 27 Norte 0 -- -- 15
2019-05-30 19:00:00 33.3 9 Nordeste 26 Nordeste 0 -- -- 15
2019-05-30 18:00:00 33.4 13 Nordeste 35 Este 0 -- -- 16
2019-05-30 17:00:00 33.7 10 Norte 66 Nordeste 0 -- -- 14
2019-05-30 16:00:00 33.1 8 Nordeste 40 Sudeste 0 -- -- 15
2019-05-30 15:00:00 32.2 11 Este 23 Sudeste 0 -- -- 15
2019-05-30 14:00:00 30.9 12 Nordeste 29 Este 0 -- -- 17
2019-05-30 13:00:00 29.8 12 Este 24 Nordeste 0 -- -- 20
2019-05-30 12:00:00 28.2 12 Este 27 Nordeste 0 -- -- 23
2019-05-30 11:00:00 26.3 12 Este 21 Este 0 -- -- 26
2019-05-30 10:00:00 24.5 14 Este 28 Este 0 -- -- 29
2019-05-30 09:00:00 22.2 14 Sudeste 24 Sudeste 0 -- -- 32
2019-05-30 08:00:00 19.4 6 Sudeste 12 Sur 0 -- -- 35
2019-05-30 07:00:00 18.6 8 Sudeste 15 Este 0 -- -- 35
2019-05-30 06:00:00 19.8 8 Sudeste 17 Sudeste 0 -- -- 33
2019-05-30 05:00:00 15.2 8 Sudeste 14 Sudeste 0 -- -- 42
2019-05-30 04:00:00 17.1 10 Sudeste 15 Sur 0 -- -- 37
2019-05-30 03:00:00 19.3 12 Sur 16 Sudeste 0 -- -- 32
2019-05-30 02:00:00 19.5 10 Sudeste 13 Sudeste 0 -- -- 33
2019-05-30 01:00:00 20.8 5 Sudeste 10 Este 0 -- -- 31
2019-05-30 00:00:00 20.6 2 Sur 9 Nordeste 0 -- -- 32
2019-05-29 23:00:00 24.1 5 Nordeste 10 Nordeste 0 -- -- 24
2019-05-29 22:00:00 26.9 4 Nordeste 18 Nordeste 0 -- -- 22
2019-05-29 21:00:00 29.8 8 Nordeste 26 Nordeste 0 -- -- 19
2019-05-29 20:00:00 30.8 13 Nordeste 26 Nordeste 0 -- -- 18
2019-05-29 19:00:00 31.2 12 Este 26 Nordeste 0 -- -- 19
2019-05-29 18:00:00 31 10 Nordeste 28 Nordeste 0 -- -- 19
2019-05-29 17:00:00 30.8 16 Nordeste 32 Nordeste 0 -- -- 19
2019-05-29 16:00:00 30.4 13 Nordeste 29 Nordeste 0 -- -- 20
2019-05-29 15:00:00 29.7 13 Este 28 Este 0 -- -- 20
2019-05-29 14:00:00 28.7 14 Nordeste 29 Este 0 -- -- 21
2019-05-29 13:00:00 27.3 14 Este 30 Este 0 -- -- 23
2019-05-29 12:00:00 25.9 14 Este 32 Este 0 -- -- 24
2019-05-29 11:00:00 24.5 20 Este 39 Este 0 -- -- 26
2019-05-29 10:00:00 22.7 12 Este 27 Este 0 -- -- 29
2019-05-29 09:00:00 20.8 9 Este 22 Este 0 -- -- 33
2019-05-29 08:00:00 17.5 2 Sur 8 Sudoeste 0 -- -- 37
2019-05-29 07:00:00 15.6 3 Noroeste 14 Sudeste 0 -- -- 40
2019-05-29 06:00:00 18.8 4 Sur 15 Sudeste 0 -- -- 33
2019-05-29 05:00:00 16.4 5 Sudeste 10 Este 0 -- -- 39
2019-05-29 04:00:00 14 0 Calma 5 Norte 0 -- -- 50
2019-05-29 03:00:00 17.4 6 Noroeste 8 Norte 0 -- -- 38
2019-05-29 02:00:00 17.9 6 Noroeste 10 Noroeste 0 -- -- 37
2019-05-29 01:00:00 19.2 8 Noroeste 14 Norte 0 -- -- 34
2019-05-29 00:00:00 21.3 9 Norte 11 Norte 0 -- -- 28
2019-05-28 23:00:00 23.3 8 Noroeste 13 Noroeste 0 -- -- 24
2019-05-28 22:00:00 24.7 5 Noroeste 24 Norte 0 -- -- 21
2019-05-28 21:00:00 29.1 17 Norte 34 Norte 0 -- -- 16
2019-05-28 20:00:00 30.8 18 Norte 32 Noroeste 0 -- -- 19
2019-05-28 19:00:00 32.2 17 Norte 33 Norte 0 -- -- 22
2019-05-28 18:00:00 32.4 19 Norte 38 Noroeste 0 -- -- 23
2019-05-28 17:00:00 32 12 Norte 27 Noroeste 0 -- -- 21
2019-05-28 16:00:00 31.9 14 Norte 25 Norte 0 -- -- 25
2019-05-28 15:00:00 30.7 12 Norte 32 Norte 0 -- -- 28
2019-05-28 14:00:00 29.5 13 Norte 26 Noroeste 0 -- -- 31
2019-05-28 13:00:00 27.9 14 Noroeste 26 Noroeste 0 -- -- 34
2019-05-28 12:00:00 25.6 10 Noroeste 18 Noroeste 0 -- -- 40
2019-05-28 11:00:00 23.4 10 Noroeste 17 Noroeste 0 -- -- 46
2019-05-28 10:00:00 21.6 10 Noroeste 18 Noroeste 0 -- -- 52
2019-05-28 09:00:00 18.6 7 Noroeste 12 Noroeste 0 -- -- 66
2019-05-28 08:00:00 13.7 4 Sudeste 7 Sur 0 -- -- 83
2019-05-28 07:00:00 12.6 4 Sudeste 8 Sur 0 -- -- 86
2019-05-28 06:00:00 13.3 3 Sudeste 8 Sur 0 -- -- 83
2019-05-28 05:00:00 14 5 Sudeste 9 Sur 0 -- -- 82
2019-05-28 04:00:00 14.9 4 Sudeste 7 Sur 0 -- -- 78
2019-05-28 03:00:00 15.9 4 Sudeste 6 Sudeste 0 -- -- 74
2019-05-28 02:00:00 17.5 2 Norte 5 Oeste 0 -- -- 68
2019-05-28 01:00:00 19.1 0 Calma 10 Noroeste 0 -- -- 60
2019-05-28 00:00:00 20.7 4 Noroeste 15 Noroeste 0 -- -- 52